Time;durP1;ratioP1;P1;durP2;ratioP2;P2;SDS_P1;SDS_P2;PMS_P1;PMS_P2;Temp;Humidity;BMP_temperature;BMP_pressure;BME280_temperature;BME280_humidity;BME280_pressure;Samples;Min_cycle;Max_cycle;Signal;HPM_P1;HPM_P2
2022/10/03 17:44:45;;;;;;;;;;;16.00;99.90;;;;;;5025078;28;20387;-73
2022/10/03 17:47:21;;;;;;;;;;;15.60;99.90;;;;;;5007276;28;20327;-77
2022/10/03 17:49:47;;;;;;;;;;;15.50;99.90;;;;;;5022586;28;20277;-71
2022/10/03 17:52:19;;;;;;;;;;;15.40;99.90;;;;;;5020493;28;20016;-75
2022/10/03 17:54:46;;;;;;;;;;;15.40;99.90;;;;;;5011556;28;19926;-73
2022/10/03 17:57:22;;;;;;;;;;;15.30;99.90;;;;;;5023034;28;20453;-74
2022/10/03 18:00:01;;;;;;;;;;;15.30;99.90;;;;;;5015036;28;20314;-71
2022/10/03 18:02:29;;;;;;;;;;;15.20;99.90;;;;;;5009755;28;20018;-72
2022/10/03 18:05:18;;;;;;;;;;;15.20;99.90;;;;;;5008798;28;19930;-73
2022/10/03 18:07:44;;;;;;;;;;;15.20;99.90;;;;;;5006819;28;19966;-73
2022/10/03 18:10:21;;;;;;;;;;;15.10;99.90;;;;;;4996654;28;19930;-73
2022/10/03 18:12:51;;;;;;;;;;;15.10;99.90;;;;;;5001693;28;20307;-73
2022/10/03 18:15:34;;;;;;;;;;;15.10;99.90;;;;;;5000966;28;19968;-73
2022/10/03 18:17:59;;;;;;;;;;;15.00;99.90;;;;;;4991397;28;20017;-74
2022/10/03 18:20:31;;;;;;;;;;;15.00;99.90;;;;;;5002451;28;20357;-73
2022/10/03 18:23:02;;;;;;;;;;;15.00;99.90;;;;;;4991137;28;19980;-73
2022/10/03 18:26:18;;;;;;;;;;;14.90;99.90;;;;;;5002253;28;19976;-73
2022/10/03 18:28:26;;;;;;;;;;;14.90;99.90;;;;;;5005448;28;19934;-73
2022/10/03 18:30:59;;;;;;;;;;;14.90;99.90;;;;;;5000054;28;20449;-73
2022/10/03 18:33:33;;;;;;;;;;;14.90;99.90;;;;;;5006830;28;19956;-73
2022/10/03 18:36:06;;;;;;;;;;;14.90;99.90;;;;;;5036078;28;19929;-73
2022/10/03 18:38:33;;;;;;;;;;;14.80;99.90;;;;;;4995704;28;19977;-74
2022/10/03 18:41:00;;;;;;;;;;;14.80;99.90;;;;;;4999063;28;20061;-74
2022/10/03 18:43:26;;;;;;;;;;;14.80;99.90;;;;;;5001703;28;19933;-73
2022/10/03 18:46:02;;;;;;;;;;;14.70;99.90;;;;;;4999564;28;19959;-74
2022/10/03 18:48:48;;;;;;;;;;;14.70;99.90;;;;;;5002218;28;19926;-74
2022/10/03 18:51:26;;;;;;;;;;;14.70;99.90;;;;;;5011162;28;19936;-72
2022/10/03 18:54:03;;;;;;;;;;;14.60;99.90;;;;;;5000423;28;19933;-75
2022/10/03 18:56:29;;;;;;;;;;;14.60;99.90;;;;;;4985615;28;19930;-74
2022/10/03 18:59:12;;;;;;;;;;;14.60;99.90;;;;;;4988286;28;20500;-74
2022/10/03 19:01:51;;;;;;;;;;;14.60;99.90;;;;;;4992434;28;20013;-74
2022/10/03 19:04:37;;;;;;;;;;;14.50;99.90;;;;;;4988729;28;19938;-74
2022/10/03 19:07:09;;;;;;;;;;;14.50;99.90;;;;;;4973917;28;19950;-75
2022/10/03 19:09:39;;;;;;;;;;;14.50;99.90;;;;;;4987716;28;19940;-73
2022/10/03 19:12:07;;;;;;;;;;;14.40;99.90;;;;;;4988794;28;19973;-73
2022/10/03 19:14:36;;;;;;;;;;;14.40;99.90;;;;;;4989289;28;20314;-73
2022/10/03 19:17:17;;;;;;;;;;;14.40;99.90;;;;;;4987238;28;20298;-73
2022/10/03 19:19:48;;;;;;;;;;;14.30;99.90;;;;;;4982072;28;19937;-73
2022/10/03 19:22:15;;;;;;;;;;;14.30;99.90;;;;;;4985927;28;19930;-72
2022/10/03 19:24:43;;;;;;;;;;;14.20;99.90;;;;;;5019546;28;19981;-73
2022/10/03 19:27:10;;;;;;;;;;;14.20;99.90;;;;;;4987161;28;19990;-73
2022/10/03 19:29:41;;;;;;;;;;;14.20;99.90;;;;;;4988192;28;19926;-74
2022/10/03 19:32:15;;;;;;;;;;;14.10;99.90;;;;;;4988384;28;20022;-73
2022/10/03 19:34:42;;;;;;;;;;;14.10;99.90;;;;;;4992301;28;20370;-73
2022/10/03 19:37:16;;;;;;;;;;;14.10;99.90;;;;;;4985160;28;19968;-73
2022/10/03 19:39:41;;;;;;;;;;;14.00;99.90;;;;;;4984937;28;20465;-73
2022/10/03 19:42:21;;;;;;;;;;;14.00;99.90;;;;;;4989962;28;20016;-73
2022/10/03 19:44:47;;;;;;;;;;;14.00;99.90;;;;;;4986254;28;19961;-72
2022/10/03 19:47:15;;;;;;;;;;;14.00;99.90;;;;;;4987233;28;20017;-73
2022/10/03 19:50:02;;;;;;;;;;;14.00;99.90;;;;;;4987928;28;19929;-73
2022/10/03 19:52:32;;;;;;;;;;;13.90;99.90;;;;;;4987334;28;19952;-74
2022/10/03 19:55:03;;;;;;;;;;;13.90;99.90;;;;;;4987941;28;20677;-73
2022/10/03 19:57:41;;;;;;;;;;;13.90;99.90;;;;;;4988380;28;20403;-74
2022/10/03 20:00:07;;;;;;;;;;;13.90;99.90;;;;;;4987997;28;20419;-74
2022/10/03 20:02:33;;;;;;;;;;;13.80;99.90;;;;;;5002397;28;20290;-74
2022/10/03 20:04:59;;;;;;;;;;;13.80;99.90;;;;;;4986182;28;19930;-75
2022/10/03 20:07:36;;;;;;;;;;;13.80;99.90;;;;;;4986136;28;20028;-75
2022/10/03 20:10:14;;;;;;;;;;;13.80;99.90;;;;;;4985285;28;20347;-74
2022/10/03 20:12:42;;;;;;;;;;;13.80;99.90;;;;;;4995614;28;19929;-75
2022/10/03 20:15:24;;;;;;;;;;;13.90;99.90;;;;;;4977587;28;19934;-73
2022/10/03 20:17:51;;;;;;;;;;;13.80;99.90;;;;;;5011045;28;19936;-74
2022/10/03 20:20:21;;;;;;;;;;;13.80;99.90;;;;;;5001139;28;19925;-74
2022/10/03 20:22:48;;;;;;;;;;;13.80;99.90;;;;;;4998808;28;19941;-73
2022/10/03 20:25:22;;;;;;;;;;;13.80;99.90;;;;;;4988325;28;19922;-75
2022/10/03 20:27:50;;;;;;;;;;;13.80;99.90;;;;;;4987978;28;19929;-74
2022/10/03 20:30:16;;;;;;;;;;;13.80;99.90;;;;;;4986345;28;20401;-74
2022/10/03 20:32:44;;;;;;;;;;;13.80;99.90;;;;;;5015047;28;19921;-75
2022/10/03 20:35:11;;;;;;;;;;;13.80;99.90;;;;;;4990697;28;20024;-76
2022/10/03 20:37:43;;;;;;;;;;;13.80;99.90;;;;;;4986570;28;19929;-76
2022/10/03 20:40:15;;;;;;;;;;;13.90;99.90;;;;;;4993130;28;19926;-78
2022/10/03 20:42:45;;;;;;;;;;;13.90;99.90;;;;;;5020690;28;20276;-77
2022/10/03 20:45:16;;;;;;;;;;;13.90;99.90;;;;;;5015653;28;19933;-77
2022/10/03 20:47:42;;;;;;;;;;;13.90;99.90;;;;;;5029638;27;20371;-75
2022/10/03 20:50:26;;;;;;;;;;;13.90;99.90;;;;;;4992294;28;19941;-78
2022/10/03 20:52:55;;;;;;;;;;;13.90;99.90;;;;;;4980253;28;20282;-75
2022/10/03 20:55:23;;;;;;;;;;;13.90;99.90;;;;;;4969885;28;19930;-78
2022/10/03 20:57:58;;;;;;;;;;;13.90;99.90;;;;;;5002005;28;20355;-78
2022/10/03 21:00:24;;;;;;;;;;;13.90;99.90;;;;;;4988207;28;19934;-78
2022/10/03 21:02:55;;;;;;;;;;;13.90;99.90;;;;;;5004674;28;20286;-77
2022/10/03 21:05:21;;;;;;;;;;;13.90;99.90;;;;;;4991242;28;19933;-77
2022/10/03 21:07:49;;;;;;;;;;;13.80;99.90;;;;;;4989587;28;20014;-77
2022/10/03 21:10:35;;;;;;;;;;;13.80;99.90;;;;;;4990051;28;20001;-78
2022/10/03 21:13:04;;;;;;;;;;;13.80;99.90;;;;;;4981628;28;19933;-77
2022/10/03 21:15:33;;;;;;;;;;;13.80;99.90;;;;;;4992180;28;19932;-77
2022/10/03 21:18:00;;;;;;;;;;;13.80;99.90;;;;;;4989788;28;19934;-78
2022/10/03 21:20:37;;;;;;;;;;;13.80;99.90;;;;;;4988477;28;20337;-77
2022/10/03 21:23:13;;;;;;;;;;;13.80;99.90;;;;;;4985967;28;19965;-78
2022/10/03 21:25:40;;;;;;;;;;;13.80;99.90;;;;;;4993085;28;19939;-78
2022/10/03 21:28:17;;;;;;;;;;;13.80;99.90;;;;;;5007259;28;19937;-78
2022/10/03 21:30:42;;;;;;;;;;;13.80;99.90;;;;;;5001651;28;19926;-78
2022/10/03 21:33:16;;;;;;;;;;;13.80;99.90;;;;;;4987966;28;19980;-78
2022/10/03 21:35:43;;;;;;;;;;;13.80;99.90;;;;;;4986437;28;19926;-78
2022/10/03 21:38:25;;;;;;;;;;;13.80;99.90;;;;;;4990889;28;19934;-78
2022/10/03 21:40:57;;;;;;;;;;;13.80;99.90;;;;;;4991644;28;19926;-78
2022/10/03 21:43:22;;;;;;;;;;;13.70;99.90;;;;;;4997018;28;19974;-77
2022/10/03 21:46:07;;;;;;;;;;;13.70;99.90;;;;;;4994073;28;19930;-78
2022/10/03 21:48:56;;;;;;;;;;;13.70;99.90;;;;;;4987837;28;20268;-78
2022/10/03 21:51:24;;;;;;;;;;;13.70;99.90;;;;;;5006238;28;19926;-77
2022/10/03 21:53:50;;;;;;;;;;;13.70;99.90;;;;;;4988466;28;20005;-78
2022/10/03 21:56:21;;;;;;;;;;;13.70;99.90;;;;;;4996768;28;20025;-78
2022/10/03 21:58:57;;;;;;;;;;;13.60;99.90;;;;;;4987706;28;19933;-77
2022/10/03 22:01:42;;;;;;;;;;;13.60;99.90;;;;;;4988396;28;19961;-78
2022/10/03 22:04:20;;;;;;;;;;;13.60;99.90;;;;;;4987517;28;19933;-77
2022/10/03 22:07:09;;;;;;;;;;;13.60;99.90;;;;;;4986652;28;20387;-79
2022/10/03 22:09:42;;;;;;;;;;;13.50;99.90;;;;;;4996060;28;20365;-79
2022/10/03 22:12:08;;;;;;;;;;;13.60;99.90;;;;;;4985175;28;20017;-78
2022/10/03 22:14:37;;;;;;;;;;;13.60;99.90;;;;;;4985034;28;19956;-78
2022/10/03 22:17:18;;;;;;;;;;;13.50;99.90;;;;;;4982413;28;19930;-75
2022/10/03 22:19:48;;;;;;;;;;;13.50;99.90;;;;;;4988465;28;20279;-78
2022/10/03 22:22:26;;;;;;;;;;;13.50;99.90;;;;;;4987103;28;19925;-78
2022/10/03 22:24:58;;;;;;;;;;;13.60;99.90;;;;;;4993361;28;20389;-79
2022/10/03 22:27:40;;;;;;;;;;;13.50;99.90;;;;;;4988983;28;20040;-78
2022/10/03 22:30:16;;;;;;;;;;;13.50;99.90;;;;;;4992202;28;20047;-76
2022/10/03 22:32:51;;;;;;;;;;;13.50;99.90;;;;;;4991011;28;19956;-78
2022/10/03 22:35:16;;;;;;;;;;;13.50;99.90;;;;;;5012311;28;19926;-78
2022/10/03 22:37:42;;;;;;;;;;;13.50;99.90;;;;;;4995914;28;20303;-78
2022/10/03 22:40:08;;;;;;;;;;;13.50;99.90;;;;;;4991520;28;20396;-78
2022/10/03 22:42:44;;;;;;;;;;;13.50;99.90;;;;;;4991922;28;19937;-78
2022/10/03 22:45:10;;;;;;;;;;;13.50;99.90;;;;;;4989441;28;19930;-78
2022/10/03 22:47:36;;;;;;;;;;;13.40;99.90;;;;;;4990121;28;20369;-78
2022/10/03 22:50:05;;;;;;;;;;;13.40;99.90;;;;;;4990315;28;20013;-79
2022/10/03 22:52:33;;;;;;;;;;;13.40;99.90;;;;;;4989620;28;19926;-79
2022/10/03 22:54:59;;;;;;;;;;;13.40;99.90;;;;;;5023065;28;19975;-79
2022/10/03 22:57:25;;;;;;;;;;;13.50;99.90;;;;;;5005273;28;19934;-77
2022/10/03 22:59:55;;;;;;;;;;;13.40;99.90;;;;;;4991466;28;19947;-78
2022/10/03 23:02:30;;;;;;;;;;;13.40;99.90;;;;;;4989951;28;19951;-79
2022/10/03 23:04:59;;;;;;;;;;;13.40;99.90;;;;;;4990538;28;19991;-78
2022/10/03 23:07:31;;;;;;;;;;;13.40;99.90;;;;;;4989734;28;20310;-78
2022/10/03 23:10:06;;;;;;;;;;;13.40;99.90;;;;;;5036224;28;20022;-78
2022/10/03 23:12:37;;;;;;;;;;;13.40;99.90;;;;;;5011569;28;20008;-79
2022/10/03 23:15:04;;;;;;;;;;;13.40;99.90;;;;;;4991716;28;19937;-80
2022/10/03 23:17:48;;;;;;;;;;;13.40;99.90;;;;;;5021749;28;20025;-77
2022/10/03 23:20:17;;;;;;;;;;;13.40;99.90;;;;;;5038758;28;19924;-77
2022/10/03 23:22:45;;;;;;;;;;;13.40;99.90;;;;;;5002090;28;20311;-78
2022/10/03 23:25:23;;;;;;;;;;;13.40;99.90;;;;;;4989973;28;20444;-75
2022/10/03 23:28:03;;;;;;;;;;;13.40;99.90;;;;;;4999564;28;20020;-78
2022/10/03 23:30:29;;;;;;;;;;;13.40;99.90;;;;;;4983040;28;20477;-79
2022/10/03 23:32:55;;;;;;;;;;;13.40;99.90;;;;;;4991356;28;20026;-79
2022/10/03 23:35:29;;;;;;;;;;;13.40;99.90;;;;;;4990555;28;19949;-78
2022/10/03 23:37:55;;;;;;;;;;;13.40;99.90;;;;;;5001196;28;20386;-78
2022/10/03 23:40:33;;;;;;;;;;;13.40;99.90;;;;;;4992647;28;20033;-79
2022/10/03 23:43:03;;;;;;;;;;;13.40;99.90;;;;;;4989602;28;20317;-78
2022/10/03 23:45:29;;;;;;;;;;;13.30;99.90;;;;;;4990456;28;20346;-78
2022/10/03 23:48:03;;;;;;;;;;;13.40;99.90;;;;;;5001367;28;19970;-78
2022/10/03 23:50:48;;;;;;;;;;;13.30;99.90;;;;;;5021390;28;19930;-78
2022/10/03 23:53:19;;;;;;;;;;;13.30;99.90;;;;;;4990778;28;19933;-75
2022/10/03 23:55:44;;;;;;;;;;;13.30;99.90;;;;;;4990779;28;19926;-79
2022/10/03 23:58:22;;;;;;;;;;;13.30;99.90;;;;;;4998825;28;20297;-79
